Aérodrome :
LOGIN :

S'inscrire | Disclaimer

   EN    FR    IT 

 










Légende :    VFR   VFR Marginal   IFR   IFR Intensif   IFR Très Intensif
Visi : 
Plafond : 
>= 8 km
>= 3000ft
5 à 8 km
1000 à 3000 ft
1500m à 5 km
500 à 1000 ft
800 à 1500m
200 à 500 ft
< 800m
< 200 ft
Symboles :   Orages  Brouillard  Fortes neiges  Fortes précipitations  Vent > 20 kt
SIGMETs :   Divers  Orages  Givrage  Turbulence  Onde Orograph.  Cendres Volcan.







- Altitude de l'aérodrome : 160 ft
- Code IATA : FMO


EDDG - Münster Osnabrück Int.

DERNIER METAR :
  • 240420Z 24009KT 7000 BKN010 18/16 Q1013 NOSIG

METARs EXPIRÉS :
  • 240350Z 25009KT 6000 BKN009 19/17 Q1013 NOSIG
  • 240320Z 23008KT 200V260 6000 BKN009 19/17 Q1013 NOSIG
  • 240250Z 25007KT 7000 BKN009 19/17 Q1013 NOSIG
  • 240220Z 25005KT 9999 BKN011 19/16 Q1013 TEMPO BKN008
  • 240208Z 24006KT 9999 BKN012 19/16 Q1013 TEMPO BKN008
  • 240150Z 24005KT 200V280 9999 FEW042 BKN060 19/15 Q1012 NOSIG

TAF AMD TAF EDDG
Valide du 24 à 02h jusqu'au 25 à 00h UTC


240215Z 2402/2424 24006KT 9999 SCT030
TEMPO 2402/2405 22012KT BKN008
TEMPO 2408/2415 26015KT
BECMG 2415/2418 VRB03KT
Pas de NOTAMs connus pour ce terrain.



MET'MAP, la Météo Aéronautique d'un coup d'oeil ! - Copyright ORBIFLY Décembre 2007 - Disclaimer

ORBIFLY MET'MAP TEAM :

Programmation & Développement : Alexandra Zaïnal
Conception & Développement : Baudouin d'Aumeries
Co-Programmation & Développement : Marc-Olivier Méhu
Soutien technique & logistique : Manuel Goepfert

Contact : metmap@orbifly.com




SOURCES & CREDITS :

   NOAA